createdAt,value
2022-10-15T00:00:50.143Z,27.00
2022-10-15T00:03:17.227Z,31.15
2022-10-15T00:05:44.015Z,26.77
2022-10-15T00:08:12.146Z,25.53
2022-10-15T00:10:39.160Z,29.00
2022-10-15T00:13:06.669Z,28.10
2022-10-15T00:15:37.243Z,28.33
2022-10-15T00:18:04.134Z,26.90
2022-10-15T00:20:31.053Z,30.83
2022-10-15T00:22:57.946Z,28.25
2022-10-15T00:25:24.744Z,29.40
2022-10-15T00:27:51.539Z,29.85
2022-10-15T00:30:18.444Z,34.28
2022-10-15T00:32:45.246Z,32.30
2022-10-15T00:35:12.039Z,35.13
2022-10-15T00:37:38.835Z,30.15
2022-10-15T00:40:06.201Z,33.92
2022-10-15T00:42:33.129Z,31.23
2022-10-15T00:45:00.271Z,29.80
2022-10-15T00:47:40.588Z,32.03
2022-10-15T00:50:27.906Z,29.58
2022-10-15T00:52:55.369Z,28.85
2022-10-15T00:55:43.397Z,29.45
2022-10-15T00:58:24.062Z,29.00
2022-10-15T01:00:50.977Z,31.25
2022-10-15T01:03:17.939Z,30.63
2022-10-15T01:05:48.307Z,30.75
2022-10-15T01:08:15.140Z,29.85
2022-10-15T01:11:20.212Z,32.90
2022-10-15T01:14:08.420Z,34.35
2022-10-15T01:17:02.247Z,29.90
2022-10-15T01:19:57.892Z,29.83
2022-10-15T01:22:43.271Z,28.25
2022-10-15T01:25:10.157Z,27.03
2022-10-15T01:28:04.413Z,30.23
2022-10-15T01:30:42.481Z,27.20
2022-10-15T01:33:12.255Z,25.92
2022-10-15T01:35:39.111Z,32.50
2022-10-15T01:38:21.114Z,29.30
2022-10-15T01:40:51.611Z,26.23
2022-10-15T01:43:29.638Z,30.60
2022-10-15T01:47:01.679Z,26.27
2022-10-15T01:49:33.164Z,30.63
2022-10-15T01:52:10.264Z,27.20
2022-10-15T01:54:37.983Z,25.17
2022-10-15T01:57:06.945Z,27.77
2022-10-15T01:59:35.118Z,31.08
2022-10-15T02:02:01.932Z,29.77
2022-10-15T02:04:31.251Z,28.73
2022-10-15T02:07:24.696Z,31.17
2022-10-15T02:10:00.779Z,33.40
2022-10-15T02:12:42.767Z,26.27
2022-10-15T02:15:30.788Z,27.38
2022-10-15T02:18:04.436Z,27.80
2022-10-15T02:20:36.934Z,29.40
2022-10-15T02:23:39.170Z,27.52
2022-10-15T02:26:10.204Z,33.67
2022-10-15T02:28:40.632Z,30.17
2022-10-15T02:31:10.714Z,32.47
2022-10-15T02:33:39.165Z,29.98
2022-10-15T02:36:07.317Z,29.80
2022-10-15T02:38:37.414Z,27.60
2022-10-15T02:41:05.468Z,31.63
2022-10-15T02:43:32.296Z,28.63
2022-10-15T02:45:59.636Z,29.70
2022-10-15T02:48:27.250Z,28.77
2022-10-15T02:50:53.985Z,27.67
2022-10-15T02:53:20.999Z,29.98
2022-10-15T02:55:47.886Z,29.03
2022-10-15T02:58:14.984Z,32.42
2022-10-15T03:00:43.826Z,33.97
2022-10-15T03:03:11.346Z,30.23
2022-10-15T03:05:38.532Z,31.20
2022-10-15T03:08:05.872Z,32.37
2022-10-15T03:10:32.995Z,33.38
2022-10-15T03:13:05.372Z,32.55
2022-10-15T03:15:37.132Z,31.45
2022-10-15T03:18:05.027Z,31.48
2022-10-15T03:20:31.938Z,31.13
2022-10-15T03:22:58.839Z,33.97
2022-10-15T03:25:25.879Z,33.88
2022-10-15T03:27:59.892Z,32.53
2022-10-15T03:30:35.242Z,32.35
2022-10-15T03:33:02.360Z,32.47
2022-10-15T03:35:29.971Z,32.40
2022-10-15T03:37:57.434Z,30.60
2022-10-15T03:40:24.244Z,34.70
2022-10-15T03:42:55.123Z,31.23
2022-10-15T03:45:25.005Z,28.60
2022-10-15T03:48:05.213Z,30.50
2022-10-15T03:50:34.527Z,30.75
2022-10-15T03:53:05.256Z,30.27
2022-10-15T03:55:32.852Z,26.52
2022-10-15T03:58:00.036Z,30.30
2022-10-15T04:00:27.965Z,29.23
2022-10-15T04:02:58.303Z,26.38
2022-10-15T04:05:27.332Z,29.20
2022-10-15T04:08:00.381Z,32.33
2022-10-15T04:10:30.442Z,31.40
2022-10-15T04:12:57.625Z,37.97
2022-10-15T04:15:24.401Z,35.25
2022-10-15T04:17:59.374Z,31.50
2022-10-15T04:20:28.074Z,29.48
2022-10-15T04:23:07.115Z,31.10
2022-10-15T04:25:36.768Z,33.22
2022-10-15T04:28:03.969Z,33.83
2022-10-15T04:30:32.847Z,30.42
2022-10-15T04:33:03.009Z,29.08
2022-10-15T04:35:29.858Z,26.77
2022-10-15T04:38:07.296Z,27.98
2022-10-15T04:41:12.877Z,27.95
2022-10-15T04:43:57.167Z,30.02
2022-10-15T04:46:24.050Z,33.03
2022-10-15T04:48:53.166Z,29.63
2022-10-15T04:51:21.319Z,32.75
2022-10-15T04:54:18.294Z,30.40
2022-10-15T04:56:56.852Z,36.35
2022-10-15T04:59:23.781Z,31.25
2022-10-15T05:02:16.884Z,36.67
2022-10-15T05:04:46.049Z,37.70
2022-10-15T05:07:12.923Z,38.20
2022-10-15T05:09:45.972Z,34.28
2022-10-15T05:12:13.243Z,40.88
2022-10-15T05:14:39.994Z,33.77
2022-10-15T05:17:14.540Z,35.75
2022-10-15T05:19:42.984Z,33.42
2022-10-15T05:22:16.871Z,33.83
2022-10-15T05:24:49.911Z,37.40
2022-10-15T05:27:36.927Z,37.27
2022-10-15T05:30:06.045Z,32.65
2022-10-15T05:32:38.085Z,33.25
2022-10-15T05:35:05.485Z,33.83
2022-10-15T05:37:50.705Z,31.98
2022-10-15T05:40:21.263Z,33.00
2022-10-15T05:43:02.105Z,33.58
2022-10-15T05:45:29.086Z,33.22
2022-10-15T05:48:01.158Z,30.88
2022-10-15T05:50:27.987Z,33.03
2022-10-15T05:52:56.905Z,34.67
2022-10-15T05:55:40.192Z,33.72
2022-10-15T05:58:08.154Z,32.65
2022-10-15T06:00:35.409Z,31.20
2022-10-15T06:03:02.280Z,35.63
2022-10-15T06:05:29.056Z,32.87
2022-10-15T06:07:56.889Z,34.63
2022-10-15T06:10:23.650Z,35.35
2022-10-15T06:12:51.419Z,32.88
2022-10-15T06:15:19.290Z,36.05
2022-10-15T06:17:46.170Z,35.47
2022-10-15T06:20:13.370Z,36.17
2022-10-15T06:22:40.160Z,39.05
2022-10-15T06:25:07.792Z,44.63
2022-10-15T06:27:34.558Z,39.47
2022-10-15T06:30:01.280Z,47.77
2022-10-15T06:32:28.207Z,42.70
2022-10-15T06:34:54.980Z,47.17
2022-10-15T06:37:22.365Z,49.60
2022-10-15T06:39:51.070Z,47.38
2022-10-15T06:42:17.814Z,51.70
2022-10-15T06:44:47.643Z,48.75
2022-10-15T06:47:20.287Z,52.10
2022-10-15T06:49:47.362Z,45.65
2022-10-15T06:52:15.554Z,46.13
2022-10-15T06:54:42.336Z,47.27
2022-10-15T06:57:10.775Z,42.83
2022-10-15T06:59:40.491Z,43.00
2022-10-15T07:02:10.597Z,41.67
2022-10-15T07:04:37.343Z,42.15
2022-10-15T07:07:04.136Z,44.87
2022-10-15T07:09:31.018Z,42.58
2022-10-15T07:11:57.837Z,49.17
2022-10-15T07:14:24.596Z,46.85
2022-10-15T07:16:51.383Z,48.70
2022-10-15T07:19:18.476Z,45.70
2022-10-15T07:21:46.735Z,44.42
2022-10-15T07:24:14.067Z,45.67
2022-10-15T07:26:40.985Z,46.65
2022-10-15T07:29:07.816Z,47.95
2022-10-15T07:31:35.306Z,43.57
2022-10-15T07:34:02.129Z,52.17
2022-10-15T07:36:28.942Z,50.92
2022-10-15T07:38:55.861Z,49.40
2022-10-15T07:41:22.762Z,50.17
2022-10-15T07:43:52.527Z,57.80
2022-10-15T07:46:19.800Z,54.00
2022-10-15T07:48:49.981Z,53.20
2022-10-15T07:53:44.500Z,54.22
2022-10-15T07:56:13.429Z,50.57
2022-10-15T07:58:40.872Z,49.20
2022-10-15T08:01:09.821Z,51.05
2022-10-15T08:03:37.706Z,48.45
2022-10-15T08:06:07.262Z,49.65
2022-10-15T08:08:35.341Z,43.77
2022-10-15T08:11:12.364Z,47.13
2022-10-15T08:13:39.573Z,49.08
2022-10-15T08:16:06.555Z,48.47
2022-10-15T08:18:33.389Z,49.45
2022-10-15T08:21:01.687Z,49.00
2022-10-15T08:23:29.128Z,50.85
2022-10-15T08:25:58.214Z,50.15
2022-10-15T08:28:25.225Z,47.20
2022-10-15T08:30:52.043Z,53.65
2022-10-15T08:33:18.805Z,47.53
2022-10-15T08:35:45.584Z,50.38
2022-10-15T08:38:14.859Z,56.63
2022-10-15T08:40:54.698Z,49.40
2022-10-15T08:43:37.318Z,52.50
2022-10-15T08:46:11.654Z,46.70
2022-10-15T08:48:44.716Z,51.80
2022-10-15T08:51:21.686Z,48.50
2022-10-15T08:54:03.551Z,56.55
2022-10-15T08:56:54.246Z,53.50
2022-10-15T08:59:45.709Z,49.43
2022-10-15T09:02:38.508Z,52.55
2022-10-15T09:05:42.389Z,49.78
2022-10-15T09:08:31.467Z,48.65
2022-10-15T09:11:05.523Z,55.42
2022-10-15T09:13:40.119Z,52.23
2022-10-15T09:16:15.900Z,49.53
2022-10-15T09:18:47.139Z,49.65
2022-10-15T09:21:15.140Z,49.15
2022-10-15T09:23:43.553Z,46.42
2022-10-15T09:26:13.340Z,52.53
2022-10-15T09:29:12.282Z,50.03
2022-10-15T09:34:38.017Z,44.25
2022-10-15T09:37:14.724Z,46.05
2022-10-15T09:40:11.723Z,44.23
2022-10-15T09:42:41.694Z,42.33
2022-10-15T09:45:14.692Z,46.45
2022-10-15T09:47:43.271Z,42.65
2022-10-15T09:50:13.810Z,44.15
2022-10-15T09:53:37.974Z,38.10
2022-10-15T09:56:14.045Z,40.42
2022-10-15T09:58:47.774Z,39.58
2022-10-15T10:01:26.296Z,41.80
2022-10-15T10:04:14.918Z,40.72
2022-10-15T10:06:54.460Z,40.97
2022-10-15T10:09:24.789Z,39.55
2022-10-15T10:11:58.150Z,40.40
2022-10-15T10:14:53.393Z,39.72
2022-10-15T10:17:25.119Z,43.22
2022-10-15T10:20:09.856Z,44.40
2022-10-15T10:22:50.477Z,38.92
2022-10-15T10:25:40.830Z,43.47
2022-10-15T10:28:10.721Z,41.00
2022-10-15T10:30:43.105Z,42.17
2022-10-15T10:33:15.833Z,42.77
2022-10-15T10:35:47.842Z,43.00
2022-10-15T10:38:27.411Z,38.53
2022-10-15T10:40:57.620Z,40.65
2022-10-15T10:43:27.762Z,39.13
2022-10-15T10:45:57.681Z,43.03
2022-10-15T10:48:43.222Z,41.72
2022-10-15T10:51:19.786Z,34.33
2022-10-15T10:54:09.318Z,37.17
2022-10-15T10:56:42.573Z,38.85
2022-10-15T10:59:25.530Z,35.77
2022-10-15T11:01:52.633Z,31.45
2022-10-15T11:04:29.193Z,30.42
2022-10-15T11:07:22.006Z,31.95
2022-10-15T11:10:03.367Z,28.08
2022-10-15T11:12:57.789Z,28.63
2022-10-15T11:15:45.739Z,32.78
2022-10-15T11:18:34.976Z,37.28
2022-10-15T11:21:06.908Z,32.20
2022-10-15T11:23:49.659Z,32.67
2022-10-15T11:26:59.209Z,34.47
2022-10-15T11:29:42.812Z,42.60
2022-10-15T11:32:42.418Z,35.65
2022-10-15T11:35:48.056Z,34.80
2022-10-15T11:38:32.852Z,32.85
2022-10-15T11:41:33.106Z,37.77
2022-10-15T11:44:29.411Z,36.05
2022-10-15T11:47:34.332Z,32.22
2022-10-15T11:50:49.106Z,45.65
2022-10-15T11:53:35.484Z,39.47
2022-10-15T11:56:21.215Z,32.30
2022-10-15T12:01:38.796Z,32.20
2022-10-15T12:04:31.839Z,31.08
2022-10-15T12:07:04.918Z,30.48
2022-10-15T12:09:36.896Z,35.00
2022-10-15T12:12:09.509Z,38.60
2022-10-15T12:14:42.903Z,40.15
2022-10-15T12:17:18.878Z,41.53
2022-10-15T12:19:48.297Z,40.72
2022-10-15T12:22:34.147Z,39.20
2022-10-15T12:25:01.743Z,35.85
2022-10-15T12:27:36.869Z,36.80
2022-10-15T12:30:03.708Z,39.67
2022-10-15T12:32:37.536Z,42.45
2022-10-15T12:37:49.924Z,37.65
2022-10-15T12:40:23.210Z,35.75
2022-10-15T12:42:56.947Z,46.22
2022-10-15T12:45:40.534Z,40.70
2022-10-15T12:48:16.414Z,43.73
2022-10-15T12:50:46.135Z,37.80
2022-10-15T12:53:27.900Z,41.80
2022-10-15T12:56:11.705Z,40.13
2022-10-15T12:58:51.516Z,39.53
2022-10-15T13:01:18.288Z,36.83
2022-10-15T13:03:51.228Z,38.80
2022-10-15T13:06:20.728Z,36.92
2022-10-15T13:08:55.209Z,38.90
2022-10-15T13:11:27.334Z,44.03
2022-10-15T13:14:17.726Z,39.40
2022-10-15T13:16:46.173Z,40.78
2022-10-15T13:19:46.254Z,38.13
2022-10-15T13:22:26.837Z,35.53
2022-10-15T13:24:53.833Z,40.22
2022-10-15T13:27:31.121Z,38.70
2022-10-15T13:30:04.178Z,41.13
2022-10-15T13:32:35.781Z,38.67
2022-10-15T13:35:10.064Z,37.22
2022-10-15T13:37:40.038Z,37.20
2022-10-15T13:40:08.383Z,44.10
2022-10-15T13:42:35.904Z,36.50
2022-10-15T13:45:20.502Z,35.88
2022-10-15T13:47:52.456Z,38.78
2022-10-15T13:50:29.748Z,42.17
2022-10-15T13:53:01.673Z,37.33
2022-10-15T13:55:31.219Z,39.03
2022-10-15T13:58:16.449Z,39.58
2022-10-15T14:00:43.765Z,36.22
2022-10-15T14:03:17.737Z,39.13
2022-10-15T14:05:49.068Z,38.57
2022-10-15T14:08:20.798Z,37.28
2022-10-15T14:10:49.090Z,40.42
2022-10-15T14:13:16.187Z,41.38
2022-10-15T14:15:48.844Z,40.15
2022-10-15T14:18:18.355Z,42.33
2022-10-15T14:20:50.110Z,46.13
2022-10-15T14:23:23.050Z,47.00
2022-10-15T14:25:55.581Z,42.88
2022-10-15T14:28:24.041Z,43.97
2022-10-15T14:30:51.346Z,41.27
2022-10-15T14:33:36.889Z,42.90
2022-10-15T14:36:11.762Z,44.13
2022-10-15T14:38:39.245Z,42.80
2022-10-15T14:41:29.707Z,46.45
2022-10-15T14:44:02.287Z,43.10
2022-10-15T14:46:37.493Z,42.80
2022-10-15T14:49:14.776Z,42.00
2022-10-15T14:51:42.026Z,40.80
2022-10-15T14:54:20.407Z,45.05
2022-10-15T14:56:50.482Z,40.70
2022-10-15T14:59:19.968Z,46.42
2022-10-15T15:02:02.942Z,48.38
2022-10-15T15:04:38.100Z,42.42
2022-10-15T15:07:30.881Z,47.72
2022-10-15T15:09:57.669Z,44.30
2022-10-15T15:12:27.838Z,49.30
2022-10-15T15:14:55.043Z,43.50
2022-10-15T15:17:27.455Z,44.33
2022-10-15T15:19:56.181Z,47.10
2022-10-15T15:22:34.173Z,47.93
2022-10-15T15:25:06.595Z,45.05
2022-10-15T15:27:33.567Z,47.53
2022-10-15T15:30:00.326Z,46.03
2022-10-15T15:32:27.418Z,57.13
2022-10-15T15:34:55.235Z,52.30
2022-10-15T15:37:23.624Z,47.67
2022-10-15T15:39:50.973Z,50.63
2022-10-15T15:42:23.542Z,52.13
2022-10-15T15:44:50.628Z,51.72
2022-10-15T15:47:17.493Z,53.73
2022-10-15T15:49:44.426Z,47.50
2022-10-15T15:52:13.097Z,51.25
2022-10-15T15:54:43.299Z,47.28
2022-10-15T15:57:10.213Z,50.15
2022-10-15T15:59:36.919Z,51.03
2022-10-15T16:02:03.934Z,52.95
2022-10-15T16:04:30.828Z,47.22
2022-10-15T16:06:57.617Z,52.42
2022-10-15T16:09:26.820Z,49.08
2022-10-15T16:11:53.620Z,48.40
2022-10-15T16:14:20.442Z,49.80
2022-10-15T16:16:47.311Z,47.45
2022-10-15T16:19:14.046Z,50.20
2022-10-15T16:21:40.724Z,57.38
2022-10-15T16:24:07.573Z,47.53
2022-10-15T16:26:34.417Z,48.05
2022-10-15T16:29:01.201Z,55.88
2022-10-15T16:31:31.437Z,48.08
2022-10-15T16:33:58.744Z,49.72
2022-10-15T16:36:25.724Z,53.03
2022-10-15T16:38:52.505Z,54.85
2022-10-15T16:41:19.256Z,53.78
2022-10-15T16:43:47.107Z,49.90
2022-10-15T16:46:15.098Z,51.00
2022-10-15T16:48:42.037Z,49.93
2022-10-15T16:51:12.613Z,48.22
2022-10-15T16:53:40.818Z,50.35
2022-10-15T16:56:16.029Z,55.28
2022-10-15T16:58:43.036Z,55.03
2022-10-15T17:01:17.908Z,54.20
2022-10-15T17:03:45.722Z,48.63
2022-10-15T17:06:16.402Z,47.40
2022-10-15T17:08:52.422Z,48.50
2022-10-15T17:11:26.592Z,50.17
2022-10-15T17:13:57.017Z,47.57
2022-10-15T17:16:25.983Z,56.20
2022-10-15T17:18:54.059Z,62.03
2022-10-15T17:21:24.838Z,55.55
2022-10-15T17:23:56.743Z,50.92
2022-10-15T17:26:27.807Z,50.97
2022-10-15T17:28:55.029Z,52.22
2022-10-15T17:31:24.786Z,51.15
2022-10-15T17:34:03.841Z,58.08
2022-10-15T17:36:32.602Z,61.22
2022-10-15T17:39:00.091Z,43.50
2022-10-15T17:41:31.039Z,50.97
2022-10-15T17:43:58.449Z,49.47
2022-10-15T17:46:28.431Z,52.72
2022-10-15T17:48:56.313Z,50.83
2022-10-15T17:51:30.929Z,54.20
2022-10-15T17:53:59.958Z,51.28
2022-10-15T17:56:30.363Z,53.47
2022-10-15T17:58:58.781Z,52.42
2022-10-15T18:01:56.674Z,49.30
2022-10-15T18:04:17.715Z,49.93
2022-10-15T18:06:45.544Z,48.00
2022-10-15T18:09:30.390Z,48.20
2022-10-15T18:11:59.716Z,54.97
2022-10-15T18:14:32.285Z,50.42
2022-10-15T18:16:59.848Z,52.60
2022-10-15T18:19:27.655Z,51.47
2022-10-15T18:21:55.754Z,43.78
2022-10-15T18:24:24.039Z,54.53
2022-10-15T18:26:52.993Z,48.08
2022-10-15T18:29:21.289Z,43.23
2022-10-15T18:31:53.382Z,47.60
2022-10-15T18:34:23.898Z,55.33
2022-10-15T18:36:51.359Z,42.55
2022-10-15T18:39:19.899Z,45.60
2022-10-15T18:41:47.294Z,45.93
2022-10-15T18:44:18.721Z,49.95
2022-10-15T18:46:47.968Z,42.90
2022-10-15T18:49:18.859Z,44.80
2022-10-15T18:51:46.989Z,51.05
2022-10-15T18:54:14.939Z,50.80
2022-10-15T18:56:43.207Z,46.20
2022-10-15T18:59:10.845Z,43.20
2022-10-15T19:01:42.835Z,43.53
2022-10-15T19:04:13.266Z,41.85
2022-10-15T19:06:47.231Z,45.00
2022-10-15T19:09:18.018Z,41.95
2022-10-15T19:11:48.047Z,42.75
2022-10-15T19:14:16.400Z,41.22
2022-10-15T19:16:48.144Z,44.75
2022-10-15T19:19:18.560Z,43.33
2022-10-15T19:21:47.858Z,47.10
2022-10-15T19:24:17.140Z,49.05
2022-10-15T19:26:44.663Z,42.17
2022-10-15T19:29:12.330Z,43.50
2022-10-15T19:31:42.325Z,40.63
2022-10-15T19:34:10.788Z,47.08
2022-10-15T19:36:41.912Z,44.38
2022-10-15T19:39:12.528Z,50.85
2022-10-15T19:41:40.734Z,45.08
2022-10-15T19:44:10.455Z,44.67
2022-10-15T19:46:38.937Z,43.65
2022-10-15T19:49:11.277Z,44.40
2022-10-15T19:51:39.265Z,44.88
2022-10-15T19:54:07.531Z,46.97
2022-10-15T19:56:35.510Z,47.47
2022-10-15T19:59:05.202Z,46.63
2022-10-15T20:01:33.199Z,43.92
2022-10-15T20:04:05.037Z,38.67
2022-10-15T20:06:36.603Z,39.35
2022-10-15T20:09:06.986Z,39.17
2022-10-15T20:11:34.160Z,43.85
2022-10-15T20:14:02.093Z,41.10
2022-10-15T20:16:32.843Z,38.53
2022-10-15T20:19:05.343Z,41.88
2022-10-15T20:21:32.671Z,37.67
2022-10-15T20:24:00.007Z,37.97
2022-10-15T20:26:26.817Z,41.60
2022-10-15T20:28:53.774Z,40.42
2022-10-15T20:31:21.080Z,38.70
2022-10-15T20:33:49.223Z,39.60
2022-10-15T20:36:22.585Z,41.17
2022-10-15T20:38:51.414Z,40.92
2022-10-15T20:41:18.878Z,43.65
2022-10-15T20:43:46.378Z,41.60
2022-10-15T20:46:19.906Z,43.17
2022-10-15T20:48:47.139Z,39.55
2022-10-15T20:51:17.520Z,37.47
2022-10-15T20:53:45.560Z,37.45
2022-10-15T20:56:12.498Z,37.45
2022-10-15T20:58:39.379Z,39.80
2022-10-15T21:01:06.408Z,35.42
2022-10-15T21:03:33.689Z,37.45
2022-10-15T21:06:00.531Z,35.88
2022-10-15T21:08:27.348Z,32.95
2022-10-15T21:11:00.933Z,35.53
2022-10-15T21:13:27.850Z,34.85
2022-10-15T21:16:12.980Z,36.97
2022-10-15T21:18:40.181Z,37.40
2022-10-15T21:21:09.817Z,37.53
2022-10-15T21:23:40.742Z,39.30
2022-10-15T21:26:13.801Z,37.75
2022-10-15T21:28:41.048Z,41.63
2022-10-15T21:31:09.773Z,41.20
2022-10-15T21:33:37.166Z,41.00
2022-10-15T21:36:21.872Z,41.63
2022-10-15T21:38:52.365Z,45.08
2022-10-15T21:41:19.346Z,44.15
2022-10-15T21:43:46.138Z,44.15
2022-10-15T21:46:13.986Z,51.92
2022-10-15T21:48:42.398Z,47.73
2022-10-15T21:51:11.896Z,44.90
2022-10-15T21:53:39.047Z,51.05
2022-10-15T21:56:05.979Z,52.55
2022-10-15T21:58:32.839Z,47.05
2022-10-15T22:01:21.396Z,48.87
2022-10-15T22:03:50.017Z,46.80
2022-10-15T22:06:17.823Z,47.30
2022-10-15T22:08:45.260Z,49.10
2022-10-15T22:11:30.024Z,48.15
2022-10-15T22:14:02.212Z,45.57
2022-10-15T22:16:30.312Z,47.97
2022-10-15T22:18:57.329Z,52.28
2022-10-15T22:21:29.734Z,48.13
2022-10-15T22:24:01.313Z,46.67
2022-10-15T22:26:31.373Z,47.00
2022-10-15T22:29:00.881Z,46.38
2022-10-15T22:31:28.785Z,45.35
2022-10-15T22:33:56.317Z,47.70
2022-10-15T22:36:25.026Z,58.53
2022-10-15T22:39:00.500Z,49.87
2022-10-15T22:41:29.256Z,46.10
2022-10-15T22:43:56.746Z,48.00
2022-10-15T22:46:23.498Z,44.17
2022-10-15T22:48:50.514Z,45.40
2022-10-15T22:51:17.400Z,44.73
2022-10-15T22:53:44.358Z,45.90
2022-10-15T22:56:14.557Z,47.65
2022-10-15T22:58:41.888Z,43.42
2022-10-15T23:01:20.771Z,42.92
2022-10-15T23:03:49.936Z,45.70
2022-10-15T23:06:17.622Z,42.35
2022-10-15T23:08:45.156Z,45.05
2022-10-15T23:11:20.654Z,44.80
2022-10-15T23:13:51.546Z,43.72
2022-10-15T23:16:21.674Z,41.13
2022-10-15T23:18:56.345Z,42.05
2022-10-15T23:21:32.364Z,42.60
2022-10-15T23:23:59.787Z,40.67
2022-10-15T23:26:26.879Z,43.38
2022-10-15T23:28:56.099Z,47.47
2022-10-15T23:31:28.336Z,42.42
2022-10-15T23:33:56.546Z,42.20
2022-10-15T23:36:24.918Z,42.42
2022-10-15T23:38:57.143Z,42.28
2022-10-15T23:41:25.490Z,43.43
2022-10-15T23:43:52.400Z,42.92
2022-10-15T23:46:19.640Z,46.22
2022-10-15T23:48:47.232Z,49.28
2022-10-15T23:51:18.595Z,42.78
2022-10-15T23:53:45.947Z,43.97
2022-10-15T23:56:13.253Z,45.33
2022-10-15T23:58:40.428Z,42.38
